sensor_id;sensor_type;location;lat;lon;timestamp;noise_LAeq;noise_LA_min;noise_LA_max;noise_LA01;noise_LA95
43787;Laerm;29409;49.306;8.500;2023-06-22T00:00:28;40.43;37.70;42.64;;
43787;Laerm;29409;49.306;8.500;2023-06-22T00:01:29;40.45;37.70;42.35;;
43787;Laerm;29409;49.306;8.500;2023-06-22T00:02:29;40.82;38.37;43.09;;
43787;Laerm;29409;49.306;8.500;2023-06-22T00:03:29;41.31;37.88;44.27;;
43787;Laerm;29409;49.306;8.500;2023-06-22T00:04:29;41.31;38.52;44.62;;
43787;Laerm;29409;49.306;8.500;2023-06-22T00:05:30;44.48;37.88;54.45;;
43787;Laerm;29409;49.306;8.500;2023-06-22T00:06:30;40.45;37.32;42.42;;
43787;Laerm;29409;49.306;8.500;2023-06-22T00:07:30;40.90;35.94;43.44;;
43787;Laerm;29409;49.306;8.500;2023-06-22T00:08:30;40.62;37.32;43.14;;
43787;Laerm;29409;49.306;8.500;2023-06-22T00:09:31;41.45;38.37;44.97;;
43787;Laerm;29409;49.306;8.500;2023-06-22T00:10:31;40.97;37.52;44.35;;
43787;Laerm;29409;49.306;8.500;2023-06-22T00:11:31;40.23;36.69;42.93;;
43787;Laerm;29409;49.306;8.500;2023-06-22T00:12:33;40.28;35.94;43.29;;
43787;Laerm;29409;49.306;8.500;2023-06-22T00:13:33;41.92;38.81;44.65;;
43787;Laerm;29409;49.306;8.500;2023-06-22T00:14:33;40.50;37.70;43.19;;
43787;Laerm;29409;49.306;8.500;2023-06-22T00:15:34;40.11;36.69;42.53;;
43787;Laerm;29409;49.306;8.500;2023-06-22T00:16:34;40.20;37.12;43.68;;
43787;Laerm;29409;49.306;8.500;2023-06-22T00:17:34;39.99;36.20;42.16;;
43787;Laerm;29409;49.306;8.500;2023-06-22T00:18:35;40.13;36.45;43.00;;
43787;Laerm;29409;49.306;8.500;2023-06-22T00:19:36;39.97;36.91;42.82;;
43787;Laerm;29409;49.306;8.500;2023-06-22T00:20:36;40.15;36.91;42.22;;
43787;Laerm;29409;49.306;8.500;2023-06-22T00:21:37;39.84;36.20;44.45;;
43787;Laerm;29409;49.306;8.500;2023-06-22T00:22:38;40.16;35.94;43.04;;
43787;Laerm;29409;49.306;8.500;2023-06-22T00:23:38;40.97;37.70;48.31;;
43787;Laerm;29409;49.306;8.500;2023-06-22T00:24:39;41.90;38.37;44.87;;
43787;Laerm;29409;49.306;8.500;2023-06-22T00:25:39;41.13;37.70;44.23;;
43787;Laerm;29409;49.306;8.500;2023-06-22T00:26:43;40.92;38.21;43.44;;
43787;Laerm;29409;49.306;8.500;2023-06-22T00:27:43;40.75;38.21;43.09;;
43787;Laerm;29409;49.306;8.500;2023-06-22T00:28:43;40.99;37.88;42.93;;
43787;Laerm;29409;49.306;8.500;2023-06-22T00:29:44;40.85;38.21;43.63;;
43787;Laerm;29409;49.306;8.500;2023-06-22T00:30:44;40.62;37.70;43.86;;
43787;Laerm;29409;49.306;8.500;2023-06-22T00:31:45;41.37;38.52;44.19;;
43787;Laerm;29409;49.306;8.500;2023-06-22T00:32:45;41.43;38.21;43.77;;
43787;Laerm;29409;49.306;8.500;2023-06-22T00:33:45;42.83;40.53;44.90;;
43787;Laerm;29409;49.306;8.500;2023-06-22T00:34:46;43.86;41.46;52.06;;
43787;Laerm;29409;49.306;8.500;2023-06-22T00:35:46;43.25;41.38;45.23;;
43787;Laerm;29409;49.306;8.500;2023-06-22T00:36:47;43.00;41.38;44.43;;
43787;Laerm;29409;49.306;8.500;2023-06-22T00:37:47;42.96;41.61;44.35;;
43787;Laerm;29409;49.306;8.500;2023-06-22T00:38:47;43.10;41.33;45.57;;
43787;Laerm;29409;49.306;8.500;2023-06-22T00:39:50;43.32;41.06;47.30;;
43787;Laerm;29409;49.306;8.500;2023-06-22T00:40:50;43.44;41.22;53.25;;
43787;Laerm;29409;49.306;8.500;2023-06-22T00:41:51;44.10;41.30;58.30;;
43787;Laerm;29409;49.306;8.500;2023-06-22T00:42:51;44.60;41.96;60.92;;
43787;Laerm;29409;49.306;8.500;2023-06-22T00:43:51;47.28;42.03;58.31;;
43787;Laerm;29409;49.306;8.500;2023-06-22T00:44:51;48.63;41.75;67.40;;
43787;Laerm;29409;49.306;8.500;2023-06-22T00:45:52;43.80;42.03;48.16;;
43787;Laerm;29409;49.306;8.500;2023-06-22T00:46:52;44.91;42.09;55.14;;
43787;Laerm;29409;49.306;8.500;2023-06-22T00:47:55;43.25;41.22;48.83;;
43787;Laerm;29409;49.306;8.500;2023-06-22T00:48:56;59.85;41.06;79.89;;
43787;Laerm;29409;49.306;8.500;2023-06-22T00:49:57;44.08;40.88;56.18;;
43787;Laerm;29409;49.306;8.500;2023-06-22T00:50:58;49.56;42.35;65.99;;
43787;Laerm;29409;49.306;8.500;2023-06-22T00:51:58;52.55;45.54;66.53;;
43787;Laerm;29409;49.306;8.500;2023-06-22T00:52:59;58.31;47.24;71.20;;
43787;Laerm;29409;49.306;8.500;2023-06-22T00:54:00;57.22;47.22;66.86;;
43787;Laerm;29409;49.306;8.500;2023-06-22T00:55:01;58.51;46.15;73.70;;
43787;Laerm;29409;49.306;8.500;2023-06-22T00:56:01;64.87;46.82;78.40;;
43787;Laerm;29409;49.306;8.500;2023-06-22T00:57:03;64.94;44.11;79.76;;
43787;Laerm;29409;49.306;8.500;2023-06-22T00:58:04;62.38;40.71;77.31;;
43787;Laerm;29409;49.306;8.500;2023-06-22T00:59:05;59.89;39.08;78.59;;
43787;Laerm;29409;49.306;8.500;2023-06-22T01:00:06;56.20;38.21;76.20;;
43787;Laerm;29409;49.306;8.500;2023-06-22T01:01:08;51.71;37.70;74.19;;
43787;Laerm;29409;49.306;8.500;2023-06-22T01:02:08;48.38;37.32;74.11;;
43787;Laerm;29409;49.306;8.500;2023-06-22T01:03:09;47.13;37.12;74.64;;
43787;Laerm;29409;49.306;8.500;2023-06-22T01:04:09;41.96;37.70;62.72;;
43787;Laerm;29409;49.306;8.500;2023-06-22T01:05:15;41.44;37.12;65.25;;
43787;Laerm;29409;49.306;8.500;2023-06-22T01:06:17;41.07;36.45;55.45;;
43787;Laerm;29409;49.306;8.500;2023-06-22T01:08:28;39.99;36.69;43.09;;
43787;Laerm;29409;49.306;8.500;2023-06-22T01:09:31;41.62;38.05;54.05;;
43787;Laerm;29409;49.306;8.500;2023-06-22T01:11:36;41.56;37.87;45.99;;
43787;Laerm;29409;49.306;8.500;2023-06-22T01:12:45;41.63;38.52;45.46;;
43787;Laerm;29409;49.306;8.500;2023-06-22T01:13:53;40.71;37.70;43.29;;
43787;Laerm;29409;49.306;8.500;2023-06-22T01:14:58;41.23;38.05;43.34;;
43787;Laerm;29409;49.306;8.500;2023-06-22T01:16:07;41.85;38.05;45.27;;
43787;Laerm;29409;49.306;8.500;2023-06-22T01:17:10;42.35;38.95;47.68;;
43787;Laerm;29409;49.306;8.500;2023-06-22T01:18:13;40.99;38.21;43.77;;
43787;Laerm;29409;49.306;8.500;2023-06-22T01:20:18;41.27;38.67;43.81;;
43787;Laerm;29409;49.306;8.500;2023-06-22T01:21:20;41.86;38.81;44.42;;
43787;Laerm;29409;49.306;8.500;2023-06-22T01:22:22;42.55;39.58;44.87;;
43787;Laerm;29409;49.306;8.500;2023-06-22T01:25:31;41.26;38.52;43.63;;
43787;Laerm;29409;49.306;8.500;2023-06-22T01:28:42;41.56;38.81;43.94;;
43787;Laerm;29409;49.306;8.500;2023-06-22T01:29:43;40.99;38.05;43.04;;
43787;Laerm;29409;49.306;8.500;2023-06-22T01:30:45;40.83;37.70;45.91;;
43787;Laerm;29409;49.306;8.500;2023-06-22T01:31:46;41.30;37.88;46.95;;
43787;Laerm;29409;49.306;8.500;2023-06-22T01:32:48;41.72;38.67;44.03;;
43787;Laerm;29409;49.306;8.500;2023-06-22T01:33:53;43.11;40.23;44.47;;
43787;Laerm;29409;49.306;8.500;2023-06-22T01:34:54;43.19;40.89;45.30;;
43787;Laerm;29409;49.306;8.500;2023-06-22T01:35:54;43.00;41.14;47.63;;
43787;Laerm;29409;49.306;8.500;2023-06-22T01:36:55;43.19;41.38;50.06;;
43787;Laerm;29409;49.306;8.500;2023-06-22T01:37:56;42.95;41.38;44.27;;
43787;Laerm;29409;49.306;8.500;2023-06-22T01:38:56;42.99;41.68;44.11;;
43787;Laerm;29409;49.306;8.500;2023-06-22T01:39:57;43.12;41.89;44.31;;
43787;Laerm;29409;49.306;8.500;2023-06-22T01:40:58;43.08;41.38;44.58;;
43787;Laerm;29409;49.306;8.500;2023-06-22T01:41:59;42.85;41.38;44.03;;
43787;Laerm;29409;49.306;8.500;2023-06-22T01:43:02;42.64;41.06;43.86;;
43787;Laerm;29409;49.306;8.500;2023-06-22T01:44:05;42.59;40.80;43.81;;
43787;Laerm;29409;49.306;8.500;2023-06-22T01:45:06;42.38;40.53;43.51;;
43787;Laerm;29409;49.306;8.500;2023-06-22T01:46:07;42.31;40.13;43.49;;
43787;Laerm;29409;49.306;8.500;2023-06-22T01:47:08;42.26;40.23;43.86;;
43787;Laerm;29409;49.306;8.500;2023-06-22T01:48:08;41.66;39.46;43.14;;
43787;Laerm;29409;49.306;8.500;2023-06-22T01:49:09;41.91;39.70;43.68;;
43787;Laerm;29409;49.306;8.500;2023-06-22T01:50:09;41.40;38.81;44.39;;
43787;Laerm;29409;49.306;8.500;2023-06-22T01:51:10;40.75;38.05;42.88;;
43787;Laerm;29409;49.306;8.500;2023-06-22T01:52:11;40.83;37.52;43.19;;
43787;Laerm;29409;49.306;8.500;2023-06-22T01:53:11;40.98;38.52;42.76;;
43787;Laerm;29409;49.306;8.500;2023-06-22T01:54:11;41.42;38.67;44.27;;
43787;Laerm;29409;49.306;8.500;2023-06-22T01:55:12;41.34;38.05;45.89;;
43787;Laerm;29409;49.306;8.500;2023-06-22T01:56:12;40.68;37.70;42.88;;
43787;Laerm;29409;49.306;8.500;2023-06-22T01:57:12;59.59;37.70;91.91;;
43787;Laerm;29409;49.306;8.500;2023-06-22T01:58:13;40.49;37.70;42.53;;
43787;Laerm;29409;49.306;8.500;2023-06-22T02:00:20;40.79;37.52;43.39;;
43787;Laerm;29409;49.306;8.500;2023-06-22T02:01:27;40.37;37.32;42.53;;
43787;Laerm;29409;49.306;8.500;2023-06-22T02:02:35;40.54;37.52;42.71;;
43787;Laerm;29409;49.306;8.500;2023-06-22T02:03:38;41.02;38.21;42.98;;
43787;Laerm;29409;49.306;8.500;2023-06-22T02:04:44;41.91;39.46;44.07;;
43787;Laerm;29409;49.306;8.500;2023-06-22T02:05:49;41.97;39.58;44.27;;
43787;Laerm;29409;49.306;8.500;2023-06-22T02:06:51;41.72;39.08;43.54;;
43787;Laerm;29409;49.306;8.500;2023-06-22T02:07:56;41.69;39.34;44.03;;
43787;Laerm;29409;49.306;8.500;2023-06-22T02:08:59;41.75;36.91;43.99;;
43787;Laerm;29409;49.306;8.500;2023-06-22T02:10:00;41.13;37.12;44.87;;
43787;Laerm;29409;49.306;8.500;2023-06-22T02:11:02;41.04;38.05;44.11;;
43787;Laerm;29409;49.306;8.500;2023-06-22T02:12:03;41.44;38.52;43.86;;
43787;Laerm;29409;49.306;8.500;2023-06-22T02:13:06;41.52;38.52;44.94;;
43787;Laerm;29409;49.306;8.500;2023-06-22T02:14:06;41.29;37.32;43.24;;
43787;Laerm;29409;49.306;8.500;2023-06-22T02:15:07;41.37;38.21;44.38;;
43787;Laerm;29409;49.306;8.500;2023-06-22T02:16:11;41.99;38.81;46.87;;
43787;Laerm;29409;49.306;8.500;2023-06-22T02:17:12;42.62;40.03;46.91;;
43787;Laerm;29409;49.306;8.500;2023-06-22T02:18:12;42.37;39.21;44.47;;
43787;Laerm;29409;49.306;8.500;2023-06-22T02:19:13;42.83;39.81;44.80;;
43787;Laerm;29409;49.306;8.500;2023-06-22T02:20:15;42.60;40.43;45.54;;
43787;Laerm;29409;49.306;8.500;2023-06-22T02:21:16;42.76;40.53;47.14;;
43787;Laerm;29409;49.306;8.500;2023-06-22T02:22:17;42.09;39.58;45.77;;
43787;Laerm;29409;49.306;8.500;2023-06-22T02:23:17;41.94;39.46;45.75;;
43787;Laerm;29409;49.306;8.500;2023-06-22T02:24:17;42.35;39.58;49.71;;
43787;Laerm;29409;49.306;8.500;2023-06-22T02:25:17;43.42;40.13;51.09;;
43787;Laerm;29409;49.306;8.500;2023-06-22T02:26:19;43.87;40.23;51.73;;
43787;Laerm;29409;49.306;8.500;2023-06-22T02:27:19;42.27;39.46;50.64;;
43787;Laerm;29409;49.306;8.500;2023-06-22T02:28:19;42.70;39.92;50.14;;
43787;Laerm;29409;49.306;8.500;2023-06-22T02:29:20;44.38;40.98;51.85;;
43787;Laerm;29409;49.306;8.500;2023-06-22T02:30:20;43.09;40.98;50.09;;
43787;Laerm;29409;49.306;8.500;2023-06-22T02:31:20;43.27;40.71;51.46;;
43787;Laerm;29409;49.306;8.500;2023-06-22T02:32:21;43.58;40.33;50.04;;
43787;Laerm;29409;49.306;8.500;2023-06-22T02:33:21;43.38;40.71;50.21;;
43787;Laerm;29409;49.306;8.500;2023-06-22T02:34:21;42.81;39.92;48.40;;
43787;Laerm;29409;49.306;8.500;2023-06-22T02:35:22;42.61;39.81;50.05;;
43787;Laerm;29409;49.306;8.500;2023-06-22T02:36:22;43.24;40.71;49.39;;
43787;Laerm;29409;49.306;8.500;2023-06-22T02:37:23;43.56;41.68;50.73;;
43787;Laerm;29409;49.306;8.500;2023-06-22T02:38:25;43.58;41.38;48.52;;
43787;Laerm;29409;49.306;8.500;2023-06-22T02:39:25;44.31;41.30;52.57;;
43787;Laerm;29409;49.306;8.500;2023-06-22T02:40:25;48.15;41.61;78.31;;
43787;Laerm;29409;49.306;8.500;2023-06-22T02:41:26;44.73;42.29;50.38;;
43787;Laerm;29409;49.306;8.500;2023-06-22T02:42:26;44.03;42.29;49.52;;
43787;Laerm;29409;49.306;8.500;2023-06-22T02:43:26;44.02;41.38;50.01;;
43787;Laerm;29409;49.306;8.500;2023-06-22T02:44:26;46.39;42.09;56.14;;
43787;Laerm;29409;49.306;8.500;2023-06-22T02:45:27;46.27;42.03;57.48;;
43787;Laerm;29409;49.306;8.500;2023-06-22T02:46:27;44.75;41.89;52.90;;
43787;Laerm;29409;49.306;8.500;2023-06-22T02:47:27;43.92;41.38;53.52;;
43787;Laerm;29409;49.306;8.500;2023-06-22T02:48:27;43.94;41.89;56.84;;
43787;Laerm;29409;49.306;8.500;2023-06-22T02:49:28;43.73;41.46;59.64;;
43787;Laerm;29409;49.306;8.500;2023-06-22T02:50:29;43.57;41.53;49.65;;
43787;Laerm;29409;49.306;8.500;2023-06-22T02:51:32;42.60;39.21;50.56;;
43787;Laerm;29409;49.306;8.500;2023-06-22T02:52:34;41.87;38.67;48.48;;
43787;Laerm;29409;49.306;8.500;2023-06-22T02:53:34;42.86;39.21;50.36;;
43787;Laerm;29409;49.306;8.500;2023-06-22T02:54:34;44.57;40.13;51.54;;
43787;Laerm;29409;49.306;8.500;2023-06-22T02:55:34;41.44;39.08;44.83;;
43787;Laerm;29409;49.306;8.500;2023-06-22T02:56:35;42.03;39.21;50.94;;
43787;Laerm;29409;49.306;8.500;2023-06-22T02:57:36;41.45;38.21;45.27;;
43787;Laerm;29409;49.306;8.500;2023-06-22T02:58:36;41.46;38.67;43.14;;
43787;Laerm;29409;49.306;8.500;2023-06-22T02:59:38;45.01;39.21;56.52;;
43787;Laerm;29409;49.306;8.500;2023-06-22T03:00:40;43.56;38.67;52.33;;
43787;Laerm;29409;49.306;8.500;2023-06-22T03:01:41;42.82;39.58;47.79;;
43787;Laerm;29409;49.306;8.500;2023-06-22T03:02:41;41.83;39.21;45.86;;
43787;Laerm;29409;49.306;8.500;2023-06-22T03:03:41;42.39;39.92;48.43;;
43787;Laerm;29409;49.306;8.500;2023-06-22T03:04:41;43.08;38.47;50.24;;
43787;Laerm;29409;49.306;8.500;2023-06-22T03:05:43;41.99;38.37;48.92;;
43787;Laerm;29409;49.306;8.500;2023-06-22T03:06:43;42.36;38.67;47.34;;
43787;Laerm;29409;49.306;8.500;2023-06-22T03:07:43;43.42;39.81;50.74;;
43787;Laerm;29409;49.306;8.500;2023-06-22T03:08:44;42.57;38.67;48.59;;
43787;Laerm;29409;49.306;8.500;2023-06-22T03:09:44;42.11;38.81;49.63;;
43787;Laerm;29409;49.306;8.500;2023-06-22T03:10:44;42.89;39.70;49.45;;
43787;Laerm;29409;49.306;8.500;2023-06-22T03:11:44;43.13;40.13;49.55;;
43787;Laerm;29409;49.306;8.500;2023-06-22T03:12:45;43.26;39.92;51.67;;
43787;Laerm;29409;49.306;8.500;2023-06-22T03:13:47;43.18;39.81;50.73;;
43787;Laerm;29409;49.306;8.500;2023-06-22T03:14:47;45.08;41.14;54.29;;
43787;Laerm;29409;49.306;8.500;2023-06-22T03:15:48;45.70;41.22;55.75;;
43787;Laerm;29409;49.306;8.500;2023-06-22T03:16:49;44.08;40.62;54.14;;
43787;Laerm;29409;49.306;8.500;2023-06-22T03:17:49;44.38;40.23;54.98;;
43787;Laerm;29409;49.306;8.500;2023-06-22T03:18:49;45.08;40.88;55.25;;
43787;Laerm;29409;49.306;8.500;2023-06-22T03:19:49;42.76;40.43;52.04;;
43787;Laerm;29409;49.306;8.500;2023-06-22T03:20:50;42.57;40.03;46.20;;
43787;Laerm;29409;49.306;8.500;2023-06-22T03:21:50;42.21;39.34;49.75;;
43787;Laerm;29409;49.306;8.500;2023-06-22T03:22:50;42.52;39.08;53.47;;
43787;Laerm;29409;49.306;8.500;2023-06-22T03:23:51;43.26;39.21;54.91;;
43787;Laerm;29409;49.306;8.500;2023-06-22T03:24:51;43.86;40.03;55.15;;
43787;Laerm;29409;49.306;8.500;2023-06-22T03:25:52;43.05;38.95;54.50;;
43787;Laerm;29409;49.306;8.500;2023-06-22T03:26:52;43.94;39.70;55.88;;
43787;Laerm;29409;49.306;8.500;2023-06-22T03:27:52;45.45;40.80;56.02;;
43787;Laerm;29409;49.306;8.500;2023-06-22T03:28:52;43.06;41.22;53.86;;
43787;Laerm;29409;49.306;8.500;2023-06-22T03:29:53;44.59;40.98;52.18;;
43787;Laerm;29409;49.306;8.500;2023-06-22T03:30:53;42.72;40.03;49.11;;
43787;Laerm;29409;49.306;8.500;2023-06-22T03:31:53;42.58;39.92;49.29;;
43787;Laerm;29409;49.306;8.500;2023-06-22T03:32:53;42.92;40.53;48.52;;
43787;Laerm;29409;49.306;8.500;2023-06-22T03:33:54;44.53;40.53;56.73;;
43787;Laerm;29409;49.306;8.500;2023-06-22T03:34:54;45.09;41.22;53.03;;
43787;Laerm;29409;49.306;8.500;2023-06-22T03:35:58;44.11;40.89;51.86;;
43787;Laerm;29409;49.306;8.500;2023-06-22T03:36:59;43.22;39.58;50.85;;
43787;Laerm;29409;49.306;8.500;2023-06-22T03:37:59;44.23;40.23;54.32;;
43787;Laerm;29409;49.306;8.500;2023-06-22T03:38:59;43.97;40.23;52.95;;
43787;Laerm;29409;49.306;8.500;2023-06-22T03:40:00;45.07;39.92;57.03;;
43787;Laerm;29409;49.306;8.500;2023-06-22T03:41:00;44.60;41.14;55.23;;
43787;Laerm;29409;49.306;8.500;2023-06-22T03:42:00;43.69;41.30;51.55;;
43787;Laerm;29409;49.306;8.500;2023-06-22T03:43:00;48.46;41.75;59.15;;
43787;Laerm;29409;49.306;8.500;2023-06-22T03:44:01;46.34;42.53;56.51;;
43787;Laerm;29409;49.306;8.500;2023-06-22T03:45:01;47.16;43.09;57.42;;
43787;Laerm;29409;49.306;8.500;2023-06-22T03:46:01;45.67;42.47;58.12;;
43787;Laerm;29409;49.306;8.500;2023-06-22T03:47:03;45.49;42.47;58.73;;
43787;Laerm;29409;49.306;8.500;2023-06-22T03:48:03;45.62;42.09;61.00;;
43787;Laerm;29409;49.306;8.500;2023-06-22T03:49:04;46.19;42.09;62.62;;
43787;Laerm;29409;49.306;8.500;2023-06-22T03:50:04;46.31;42.35;61.30;;
43787;Laerm;29409;49.306;8.500;2023-06-22T03:51:05;46.61;42.47;56.70;;
43787;Laerm;29409;49.306;8.500;2023-06-22T03:52:06;45.67;42.41;57.21;;
43787;Laerm;29409;49.306;8.500;2023-06-22T03:53:06;46.16;42.59;57.39;;
43787;Laerm;29409;49.306;8.500;2023-06-22T03:54:07;45.20;41.89;57.67;;
43787;Laerm;29409;49.306;8.500;2023-06-22T03:55:07;45.12;41.89;54.19;;
43787;Laerm;29409;49.306;8.500;2023-06-22T03:56:07;50.19;41.14;69.76;;
43787;Laerm;29409;49.306;8.500;2023-06-22T03:57:08;43.58;40.43;51.62;;
43787;Laerm;29409;49.306;8.500;2023-06-22T03:58:08;43.76;40.23;52.57;;
43787;Laerm;29409;49.306;8.500;2023-06-22T03:59:09;45.48;42.16;57.10;;
43787;Laerm;29409;49.306;8.500;2023-06-22T04:00:10;50.34;41.46;67.03;;
43787;Laerm;29409;49.306;8.500;2023-06-22T04:01:10;44.37;40.98;60.81;;
43787;Laerm;29409;49.306;8.500;2023-06-22T04:02:11;44.04;40.71;53.17;;
43787;Laerm;29409;49.306;8.500;2023-06-22T04:03:11;44.08;41.38;52.10;;
43787;Laerm;29409;49.306;8.500;2023-06-22T04:04:12;44.38;40.43;52.81;;
43787;Laerm;29409;49.306;8.500;2023-06-22T04:05:12;47.67;41.22;58.38;;
43787;Laerm;29409;49.306;8.500;2023-06-22T04:06:13;45.21;41.61;53.77;;
43787;Laerm;29409;49.306;8.500;2023-06-22T04:07:13;46.25;41.30;54.37;;
43787;Laerm;29409;49.306;8.500;2023-06-22T04:08:14;44.17;41.46;51.81;;
43787;Laerm;29409;49.306;8.500;2023-06-22T04:09:14;43.80;41.22;54.46;;
43787;Laerm;29409;49.306;8.500;2023-06-22T04:10:15;43.57;40.80;51.55;;
43787;Laerm;29409;49.306;8.500;2023-06-22T04:11:15;43.79;41.22;53.81;;
43787;Laerm;29409;49.306;8.500;2023-06-22T04:12:15;44.63;41.68;59.00;;
43787;Laerm;29409;49.306;8.500;2023-06-22T04:13:15;44.29;41.22;51.53;;
43787;Laerm;29409;49.306;8.500;2023-06-22T04:14:16;47.33;41.46;56.01;;
43787;Laerm;29409;49.306;8.500;2023-06-22T04:15:16;45.35;41.06;55.08;;
43787;Laerm;29409;49.306;8.500;2023-06-22T04:16:16;44.63;41.14;51.40;;
43787;Laerm;29409;49.306;8.500;2023-06-22T04:17:16;44.06;41.68;52.89;;
43787;Laerm;29409;49.306;8.500;2023-06-22T04:18:17;44.18;40.13;51.44;;
43787;Laerm;29409;49.306;8.500;2023-06-22T04:19:18;45.27;41.38;54.40;;
43787;Laerm;29409;49.306;8.500;2023-06-22T04:20:18;45.10;41.61;60.15;;
43787;Laerm;29409;49.306;8.500;2023-06-22T04:21:18;44.86;42.29;51.80;;
43787;Laerm;29409;49.306;8.500;2023-06-22T04:22:19;44.32;41.82;58.40;;
43787;Laerm;29409;49.306;8.500;2023-06-22T04:23:19;44.97;41.53;52.74;;
43787;Laerm;29409;49.306;8.500;2023-06-22T04:24:20;44.19;41.61;50.21;;
43787;Laerm;29409;49.306;8.500;2023-06-22T04:25:20;44.33;42.09;48.64;;
43787;Laerm;29409;49.306;8.500;2023-06-22T04:26:21;43.79;41.38;52.77;;
43787;Laerm;29409;49.306;8.500;2023-06-22T04:27:21;44.25;41.61;51.76;;
43787;Laerm;29409;49.306;8.500;2023-06-22T04:28:23;44.73;41.30;59.41;;
43787;Laerm;29409;49.306;8.500;2023-06-22T04:29:23;44.28;41.53;49.79;;
43787;Laerm;29409;49.306;8.500;2023-06-22T04:30:28;43.81;41.89;45.39;;
43787;Laerm;29409;49.306;8.500;2023-06-22T04:31:31;46.61;41.96;59.81;;
43787;Laerm;29409;49.306;8.500;2023-06-22T04:32:33;51.49;41.38;70.78;;
43787;Laerm;29409;49.306;8.500;2023-06-22T04:33:35;48.23;42.16;62.63;;
43787;Laerm;29409;49.306;8.500;2023-06-22T04:34:36;48.50;42.09;63.85;;
43787;Laerm;29409;49.306;8.500;2023-06-22T04:35:38;46.63;42.03;56.08;;
43787;Laerm;29409;49.306;8.500;2023-06-22T04:36:41;46.14;41.14;54.12;;
43787;Laerm;29409;49.306;8.500;2023-06-22T04:37:42;46.68;42.59;54.14;;
43787;Laerm;29409;49.306;8.500;2023-06-22T04:38:43;45.06;41.94;51.97;;
43787;Laerm;29409;49.306;8.500;2023-06-22T04:39:44;44.18;42.16;47.76;;
43787;Laerm;29409;49.306;8.500;2023-06-22T04:40:46;45.30;41.68;51.27;;
43787;Laerm;29409;49.306;8.500;2023-06-22T04:41:49;45.81;42.88;51.77;;
43787;Laerm;29409;49.306;8.500;2023-06-22T04:42:51;45.83;42.41;54.32;;
43787;Laerm;29409;49.306;8.500;2023-06-22T04:43:54;45.50;41.96;52.97;;
43787;Laerm;29409;49.306;8.500;2023-06-22T04:44:54;45.12;42.59;51.24;;
43787;Laerm;29409;49.306;8.500;2023-06-22T04:45:54;47.36;42.65;60.16;;
43787;Laerm;29409;49.306;8.500;2023-06-22T04:46:55;45.21;42.88;52.86;;
43787;Laerm;29409;49.306;8.500;2023-06-22T04:48:04;45.71;42.82;54.04;;
43787;Laerm;29409;49.306;8.500;2023-06-22T04:49:05;47.21;42.98;56.91;;
43787;Laerm;29409;49.306;8.500;2023-06-22T04:50:06;44.73;42.76;52.19;;
43787;Laerm;29409;49.306;8.500;2023-06-22T04:51:07;44.87;42.88;51.43;;
43787;Laerm;29409;49.306;8.500;2023-06-22T04:52:09;45.15;42.98;50.69;;
43787;Laerm;29409;49.306;8.500;2023-06-22T04:53:09;46.36;43.29;52.00;;
43787;Laerm;29409;49.306;8.500;2023-06-22T04:54:13;46.15;43.09;53.56;;
43787;Laerm;29409;49.306;8.500;2023-06-22T04:55:14;46.03;43.19;54.59;;
43787;Laerm;29409;49.306;8.500;2023-06-22T04:56:18;46.77;42.93;55.20;;
43787;Laerm;29409;49.306;8.500;2023-06-22T04:57:18;44.67;41.61;57.19;;
43787;Laerm;29409;49.306;8.500;2023-06-22T04:58:18;44.17;41.53;51.58;;
43787;Laerm;29409;49.306;8.500;2023-06-22T04:59:19;44.10;40.80;51.89;;
43787;Laerm;29409;49.306;8.500;2023-06-22T05:00:20;44.10;40.53;57.79;;
43787;Laerm;29409;49.306;8.500;2023-06-22T05:01:23;46.23;40.80;59.04;;
43787;Laerm;29409;49.306;8.500;2023-06-22T05:02:23;45.13;41.14;53.58;;
43787;Laerm;29409;49.306;8.500;2023-06-22T05:03:27;43.78;40.71;51.69;;
43787;Laerm;29409;49.306;8.500;2023-06-22T05:04:28;44.44;40.80;53.58;;
43787;Laerm;29409;49.306;8.500;2023-06-22T05:05:31;45.39;40.89;54.64;;
43787;Laerm;29409;49.306;8.500;2023-06-22T05:06:31;44.91;41.30;56.45;;
43787;Laerm;29409;49.306;8.500;2023-06-22T05:07:31;43.76;40.62;58.34;;
43787;Laerm;29409;49.306;8.500;2023-06-22T05:08:32;45.37;40.80;58.18;;
43787;Laerm;29409;49.306;8.500;2023-06-22T05:09:33;44.48;41.14;51.03;;
43787;Laerm;29409;49.306;8.500;2023-06-22T05:10:36;43.27;40.71;52.13;;
43787;Laerm;29409;49.306;8.500;2023-06-22T05:11:36;44.27;40.89;52.91;;
43787;Laerm;29409;49.306;8.500;2023-06-22T05:12:36;45.12;40.80;57.14;;
43787;Laerm;29409;49.306;8.500;2023-06-22T05:13:36;45.02;40.53;56.89;;
43787;Laerm;29409;49.306;8.500;2023-06-22T05:14:37;43.14;40.33;52.15;;
43787;Laerm;29409;49.306;8.500;2023-06-22T05:15:37;43.86;40.33;52.51;;
43787;Laerm;29409;49.306;8.500;2023-06-22T05:16:41;44.38;41.53;52.54;;
43787;Laerm;29409;49.306;8.500;2023-06-22T05:17:41;43.53;41.14;51.43;;
43787;Laerm;29409;49.306;8.500;2023-06-22T05:18:45;44.62;41.68;52.53;;
43787;Laerm;29409;49.306;8.500;2023-06-22T05:19:45;45.78;41.68;53.31;;
43787;Laerm;29409;49.306;8.500;2023-06-22T05:20:48;46.52;41.46;60.00;;
43787;Laerm;29409;49.306;8.500;2023-06-22T05:21:48;44.22;41.30;51.12;;
43787;Laerm;29409;49.306;8.500;2023-06-22T05:22:48;45.86;42.22;59.15;;
43787;Laerm;29409;49.306;8.500;2023-06-22T05:23:49;49.03;43.24;60.34;;
43787;Laerm;29409;49.306;8.500;2023-06-22T05:24:49;44.85;42.47;59.47;;
43787;Laerm;29409;49.306;8.500;2023-06-22T05:25:49;45.11;41.14;55.58;;
43787;Laerm;29409;49.306;8.500;2023-06-22T05:26:49;48.44;41.61;63.34;;
43787;Laerm;29409;49.306;8.500;2023-06-22T05:27:50;50.24;41.53;73.95;;
43787;Laerm;29409;49.306;8.500;2023-06-22T05:28:52;45.56;41.38;58.55;;
43787;Laerm;29409;49.306;8.500;2023-06-22T05:29:52;46.45;41.53;61.94;;
43787;Laerm;29409;49.306;8.500;2023-06-22T05:30:52;44.27;41.38;55.04;;
43787;Laerm;29409;49.306;8.500;2023-06-22T05:31:53;44.18;41.22;49.46;;
43787;Laerm;29409;49.306;8.500;2023-06-22T05:32:53;44.15;40.80;51.06;;
43787;Laerm;29409;49.306;8.500;2023-06-22T05:33:54;46.26;41.89;55.69;;
43787;Laerm;29409;49.306;8.500;2023-06-22T05:34:54;44.25;40.80;51.62;;
43787;Laerm;29409;49.306;8.500;2023-06-22T05:35:54;44.67;41.06;51.96;;
43787;Laerm;29409;49.306;8.500;2023-06-22T05:36:54;45.23;41.68;53.37;;
43787;Laerm;29409;49.306;8.500;2023-06-22T05:37:55;43.70;40.53;51.46;;
43787;Laerm;29409;49.306;8.500;2023-06-22T05:38:56;44.03;41.22;51.22;;
43787;Laerm;29409;49.306;8.500;2023-06-22T05:39:56;43.65;40.71;49.00;;
43787;Laerm;29409;49.306;8.500;2023-06-22T05:40:57;48.86;41.22;62.21;;
43787;Laerm;29409;49.306;8.500;2023-06-22T05:41:57;45.18;40.89;59.15;;
43787;Laerm;29409;49.306;8.500;2023-06-22T05:42:57;44.93;40.71;60.08;;
43787;Laerm;29409;49.306;8.500;2023-06-22T05:43:59;43.81;40.71;56.26;;
43787;Laerm;29409;49.306;8.500;2023-06-22T05:44:59;43.30;40.53;50.22;;
43787;Laerm;29409;49.306;8.500;2023-06-22T05:46:00;44.25;41.30;50.79;;
43787;Laerm;29409;49.306;8.500;2023-06-22T05:47:01;43.73;40.79;50.21;;
43787;Laerm;29409;49.306;8.500;2023-06-22T05:48:02;43.93;40.80;50.34;;
43787;Laerm;29409;49.306;8.500;2023-06-22T05:49:03;46.67;40.98;56.40;;
43787;Laerm;29409;49.306;8.500;2023-06-22T05:50:04;45.75;40.43;54.09;;